createdAt,value
2017-08-02T00:01:24.456Z,11.93
2017-08-02T00:03:51.927Z,12.47
2017-08-02T00:06:20.183Z,14.00
2017-08-02T00:08:47.660Z,14.07
2017-08-02T00:11:15.924Z,12.70
2017-08-02T00:13:43.392Z,15.10
2017-08-02T00:16:11.627Z,14.60
2017-08-02T00:18:39.108Z,13.60
2017-08-02T00:21:12.324Z,12.63
2017-08-02T00:23:40.564Z,14.70
2017-08-02T00:26:08.035Z,12.80
2017-08-02T00:28:35.544Z,12.57
2017-08-02T00:31:03.025Z,14.07
2017-08-02T00:33:30.505Z,13.97
2017-08-02T00:35:57.975Z,14.83
2017-08-02T00:38:25.506Z,12.70
2017-08-02T00:40:53.005Z,12.30
2017-08-02T00:43:21.248Z,12.27
2017-08-02T00:45:48.735Z,13.33
2017-08-02T00:48:16.238Z,12.23
2017-08-02T00:50:43.704Z,13.20
2017-08-02T00:53:11.264Z,12.73
2017-08-02T00:55:38.732Z,12.60
2017-08-02T00:58:06.212Z,12.93
2017-08-02T01:00:33.684Z,11.83
2017-08-02T01:03:01.160Z,12.47
2017-08-02T01:05:29.412Z,11.77
2017-08-02T01:07:56.899Z,11.97
2017-08-02T01:10:25.134Z,12.67
2017-08-02T01:12:52.613Z,12.30
2017-08-02T01:15:20.079Z,13.80
2017-08-02T01:17:48.329Z,13.80
2017-08-02T01:20:15.803Z,12.43
2017-08-02T01:22:43.275Z,14.30
2017-08-02T01:25:11.520Z,14.57
2017-08-02T01:27:39.008Z,13.67
2017-08-02T01:30:07.239Z,15.20
2017-08-02T01:32:34.728Z,15.80
2017-08-02T01:35:02.197Z,15.10
2017-08-02T01:37:30.453Z,14.97
2017-08-02T01:39:57.969Z,13.20
2017-08-02T01:42:25.453Z,13.03
2017-08-02T01:44:52.923Z,11.60
2017-08-02T01:47:20.396Z,12.40
2017-08-02T01:49:47.880Z,13.13
2017-08-02T01:52:16.116Z,13.10
2017-08-02T01:54:43.607Z,13.70
2017-08-02T01:57:11.844Z,14.10
2017-08-02T01:59:39.319Z,14.60
2017-08-02T02:02:06.783Z,13.33
2017-08-02T02:04:34.261Z,13.27
2017-08-02T02:07:01.729Z,13.70
2017-08-02T02:09:29.975Z,13.47
2017-08-02T02:11:57.441Z,13.60
2017-08-02T02:14:25.696Z,13.60
2017-08-02T02:16:55.975Z,13.30
2017-08-02T02:19:23.453Z,13.77
2017-08-02T02:21:50.923Z,11.30
2017-08-02T02:24:18.421Z,12.90
2017-08-02T02:26:46.668Z,13.03
2017-08-02T02:29:14.155Z,11.43
2017-08-02T02:31:41.615Z,15.93
2017-08-02T02:34:09.859Z,15.37
2017-08-02T02:36:37.333Z,14.50
2017-08-02T02:39:04.815Z,13.43
2017-08-02T02:41:33.048Z,14.90
2017-08-02T02:44:00.536Z,17.90
2017-08-02T02:46:28.012Z,16.73
2017-08-02T02:48:56.248Z,16.60
2017-08-02T02:51:23.727Z,14.83
2017-08-02T02:53:51.191Z,15.30
2017-08-02T02:56:19.435Z,15.00
2017-08-02T02:58:46.908Z,15.40
2017-08-02T03:01:14.393Z,15.87
2017-08-02T03:03:42.628Z,14.80
2017-08-02T03:06:10.423Z,15.30
2017-08-02T03:08:37.894Z,17.00
2017-08-02T03:11:05.371Z,16.90
2017-08-02T03:13:32.838Z,14.73
2017-08-02T03:16:00.312Z,15.63
2017-08-02T03:18:27.791Z,16.23
2017-08-02T03:20:55.280Z,15.40
2017-08-02T03:23:23.512Z,14.30
2017-08-02T03:25:50.987Z,14.90
2017-08-02T03:28:18.460Z,15.03
2017-08-02T03:30:45.942Z,15.03
2017-08-02T03:33:14.177Z,14.40
2017-08-02T03:35:41.655Z,15.37
2017-08-02T03:38:09.127Z,13.20
2017-08-02T03:40:37.380Z,14.10
2017-08-02T03:43:04.845Z,14.30
2017-08-02T03:45:32.322Z,12.87
2017-08-02T03:47:59.792Z,13.60
2017-08-02T03:50:27.255Z,14.53
2017-08-02T03:52:55.231Z,12.07
2017-08-02T03:55:22.711Z,14.33
2017-08-02T03:57:50.184Z,12.50
2017-08-02T04:00:17.669Z,11.80
2017-08-02T04:02:45.138Z,13.27
2017-08-02T04:05:13.383Z,12.73
2017-08-02T04:07:40.848Z,13.03
2017-08-02T04:10:08.332Z,11.77
2017-08-02T04:12:36.563Z,12.10
2017-08-02T04:15:04.038Z,11.30
2017-08-02T04:17:31.508Z,12.40
2017-08-02T04:19:59.000Z,13.17
2017-08-02T04:22:27.228Z,14.50
2017-08-02T04:24:54.699Z,13.33
2017-08-02T04:27:22.165Z,13.77
2017-08-02T04:29:49.914Z,14.13
2017-08-02T04:32:17.379Z,12.83
2017-08-02T04:34:44.863Z,12.30
2017-08-02T04:37:13.090Z,12.83
2017-08-02T04:39:40.558Z,13.50
2017-08-02T04:42:08.026Z,13.70
2017-08-02T04:44:35.506Z,13.20
2017-08-02T04:47:03.750Z,13.27
2017-08-02T04:49:31.224Z,11.83
2017-08-02T04:51:58.686Z,13.90
2017-08-02T04:54:26.165Z,13.47
2017-08-02T04:56:54.394Z,11.90
2017-08-02T04:59:21.870Z,13.97
2017-08-02T05:01:49.334Z,12.90
2017-08-02T05:04:16.815Z,13.50
2017-08-02T05:06:45.051Z,13.47
2017-08-02T05:09:12.523Z,12.60
2017-08-02T05:11:40.004Z,11.17
2017-08-02T05:14:08.240Z,13.20
2017-08-02T05:16:35.720Z,12.10
2017-08-02T05:19:03.190Z,11.87
2017-08-02T05:21:31.437Z,12.70
2017-08-02T05:23:58.912Z,11.90
2017-08-02T05:26:26.391Z,12.13
2017-08-02T05:28:54.622Z,12.23
2017-08-02T05:31:22.097Z,12.47
2017-08-02T05:33:49.558Z,12.60
2017-08-02T05:36:17.040Z,12.50
2017-08-02T05:38:45.276Z,13.43
2017-08-02T05:41:12.746Z,12.70
2017-08-02T05:43:40.234Z,13.17
2017-08-02T05:46:08.487Z,11.93
2017-08-02T05:48:35.956Z,12.50
2017-08-02T05:51:03.429Z,12.03
2017-08-02T05:53:31.669Z,11.20
2017-08-02T05:55:59.139Z,11.90
2017-08-02T05:58:26.624Z,10.73
2017-08-02T06:00:54.876Z,11.50
2017-08-02T06:03:22.352Z,13.60
2017-08-02T06:05:50.612Z,12.60
2017-08-02T06:08:18.081Z,16.67
2017-08-02T06:10:46.320Z,14.17
2017-08-02T06:13:13.802Z,12.90
2017-08-02T06:15:41.273Z,14.10
2017-08-02T06:18:08.752Z,14.73
2017-08-02T06:20:36.230Z,16.17
2017-08-02T06:23:03.735Z,15.33
2017-08-02T06:25:31.207Z,15.40
2017-08-02T06:27:59.461Z,14.60
2017-08-02T06:30:26.931Z,14.10
2017-08-02T06:32:54.407Z,14.40
2017-08-02T06:35:22.651Z,15.77
2017-08-02T06:37:50.123Z,14.50
2017-08-02T06:40:17.588Z,14.37
2017-08-02T06:42:45.068Z,13.83
2017-08-02T06:45:13.296Z,13.00
2017-08-02T06:47:40.775Z,13.10
2017-08-02T06:50:08.254Z,13.93
2017-08-02T06:52:36.499Z,12.07
2017-08-02T06:55:03.964Z,13.23
2017-08-02T06:57:31.431Z,12.47
2017-08-02T06:59:58.903Z,12.50
2017-08-02T07:02:27.145Z,12.57
2017-08-02T07:04:54.630Z,11.00
2017-08-02T07:07:22.096Z,10.97
2017-08-02T07:09:50.332Z,11.00
2017-08-02T07:12:17.826Z,10.00
2017-08-02T07:14:46.075Z,9.97
2017-08-02T07:17:13.537Z,9.93
2017-08-02T07:19:41.020Z,12.20
2017-08-02T07:22:09.259Z,10.93
2017-08-02T07:24:36.748Z,11.87
2017-08-02T07:27:04.206Z,11.60
2017-08-02T07:29:31.698Z,11.27
2017-08-02T07:31:59.169Z,12.13
2017-08-02T07:34:26.643Z,14.60
2017-08-02T07:36:54.116Z,12.50
2017-08-02T07:39:21.597Z,13.73
2017-08-02T07:41:49.069Z,13.43
2017-08-02T07:44:17.302Z,11.13
2017-08-02T07:46:44.770Z,12.70
2017-08-02T07:49:12.243Z,13.40
2017-08-02T07:51:39.724Z,11.90
2017-08-02T07:54:07.983Z,12.63
2017-08-02T07:56:35.442Z,12.77
2017-08-02T07:59:02.921Z,14.73
2017-08-02T08:01:31.161Z,13.47
2017-08-02T08:03:58.628Z,13.67
2017-08-02T08:06:26.115Z,13.80
2017-08-02T08:08:54.349Z,15.97
2017-08-02T08:11:21.832Z,13.23
2017-08-02T08:13:49.300Z,13.20
2017-08-02T08:16:17.552Z,11.90
2017-08-02T08:18:45.027Z,14.20
2017-08-02T08:21:12.515Z,16.20
2017-08-02T08:23:40.017Z,14.53
2017-08-02T08:26:07.498Z,15.60
2017-08-02T08:28:34.955Z,15.90
2017-08-02T08:31:02.446Z,13.70
2017-08-02T08:33:29.914Z,13.63
2017-08-02T08:35:57.400Z,14.93
2017-08-02T08:38:24.867Z,13.93
2017-08-02T08:40:52.358Z,15.47
2017-08-02T08:43:20.595Z,14.37
2017-08-02T08:45:48.086Z,14.03
2017-08-02T08:48:16.320Z,14.60
2017-08-02T08:50:43.787Z,12.40
2017-08-02T08:53:11.262Z,11.37
2017-08-02T08:55:38.731Z,11.90
2017-08-02T08:58:06.215Z,13.90
2017-08-02T09:00:34.456Z,12.40
2017-08-02T09:03:01.944Z,13.50
2017-08-02T09:05:30.176Z,13.90
2017-08-02T09:07:57.664Z,13.50
2017-08-02T09:10:25.132Z,13.83
2017-08-02T09:12:53.377Z,11.13
2017-08-02T09:15:20.847Z,10.83
2017-08-02T09:17:48.328Z,12.30
2017-08-02T09:20:15.800Z,12.60
2017-08-02T09:22:43.271Z,13.20
2017-08-02T09:25:10.749Z,11.80
2017-08-02T09:27:38.239Z,11.17
2017-08-02T09:30:07.293Z,9.97
2017-08-02T09:32:35.604Z,10.80
2017-08-02T09:35:03.076Z,10.47
2017-08-02T09:37:31.346Z,9.70
2017-08-02T09:39:58.823Z,10.93
2017-08-02T09:42:27.063Z,9.23
2017-08-02T09:44:54.526Z,8.50
2017-08-02T09:47:22.002Z,11.20
2017-08-02T09:49:49.471Z,8.23
2017-08-02T09:52:16.948Z,8.57
2017-08-02T09:54:44.411Z,9.90
2017-08-02T09:57:11.893Z,8.70
2017-08-02T09:59:39.369Z,8.97
2017-08-02T10:02:06.845Z,8.97
2017-08-02T10:04:34.349Z,7.57
2017-08-02T10:07:01.803Z,7.60
2017-08-02T10:09:29.284Z,8.07
2017-08-02T10:11:56.756Z,8.63
2017-08-02T10:14:24.226Z,8.47
2017-08-02T10:16:51.699Z,7.73
2017-08-02T10:19:19.172Z,8.80
2017-08-02T10:21:46.630Z,6.10
2017-08-02T10:24:14.903Z,7.97
2017-08-02T10:26:42.457Z,7.13
2017-08-02T10:29:09.948Z,6.37
2017-08-02T10:31:37.415Z,6.43
2017-08-02T10:34:04.871Z,5.97
2017-08-02T10:36:32.344Z,4.17
2017-08-02T10:38:59.808Z,3.07
2017-08-02T10:41:27.270Z,2.97
2017-08-02T10:43:54.728Z,3.83
2017-08-02T10:46:22.206Z,3.50
2017-08-02T10:48:49.658Z,3.30
2017-08-02T10:51:17.135Z,3.90
2017-08-02T10:53:44.609Z,3.77
2017-08-02T10:56:12.080Z,3.73
2017-08-02T10:58:40.305Z,3.80
2017-08-02T11:01:07.775Z,3.30
2017-08-02T11:03:35.236Z,2.83
2017-08-02T11:06:02.714Z,3.03
2017-08-02T11:08:30.176Z,2.87
2017-08-02T11:10:57.655Z,3.80
2017-08-02T11:13:25.115Z,2.80
2017-08-02T11:15:53.634Z,2.90
2017-08-02T11:18:21.092Z,3.57
2017-08-02T11:20:48.568Z,3.37
2017-08-02T11:23:16.023Z,3.20
2017-08-02T11:25:43.492Z,3.07
2017-08-02T11:28:10.959Z,3.67
2017-08-02T11:30:38.521Z,4.17
2017-08-02T11:33:05.988Z,3.90
2017-08-02T11:35:33.463Z,4.47
2017-08-02T11:38:01.694Z,4.50
2017-08-02T11:40:29.167Z,4.67
2017-08-02T11:42:56.633Z,4.67
2017-08-02T11:45:24.107Z,5.30
2017-08-02T11:47:52.330Z,6.00
2017-08-02T11:50:19.811Z,4.53
2017-08-02T11:52:47.278Z,4.83
2017-08-02T11:55:14.757Z,4.40
2017-08-02T11:57:42.979Z,4.60
2017-08-02T12:00:10.454Z,4.40
2017-08-02T12:02:37.920Z,4.60
2017-08-02T12:05:05.424Z,3.43
2017-08-02T12:07:32.891Z,4.20
2017-08-02T12:10:00.350Z,4.00
2017-08-02T12:12:37.657Z,4.10
2017-08-02T12:15:05.132Z,3.47
2017-08-02T12:17:32.599Z,3.93
2017-08-02T12:20:00.068Z,3.73
2017-08-02T12:22:27.550Z,4.00
2017-08-02T12:24:55.772Z,3.63
2017-08-02T12:27:23.272Z,2.90
2017-08-02T12:29:50.723Z,3.73
2017-08-02T12:32:18.183Z,3.20
2017-08-02T12:34:45.667Z,2.63
2017-08-02T12:37:13.891Z,4.50
2017-08-02T12:39:41.364Z,3.53
2017-08-02T12:42:08.843Z,3.50
2017-08-02T12:44:36.311Z,3.00
2017-08-02T12:47:04.540Z,3.33
2017-08-02T12:49:32.012Z,2.77
2017-08-02T12:51:59.472Z,2.43
2017-08-02T12:54:26.937Z,2.87
2017-08-02T12:56:54.404Z,2.63
2017-08-02T12:59:21.875Z,2.60
2017-08-02T13:04:42.940Z,2.80
2017-08-02T13:07:10.421Z,2.33
2017-08-02T13:09:37.912Z,3.20
2017-08-02T13:12:05.375Z,2.20
2017-08-02T13:14:32.905Z,3.10
2017-08-02T13:17:00.367Z,2.60
2017-08-02T13:19:27.833Z,3.20
2017-08-02T13:21:55.299Z,3.20
2017-08-02T13:24:22.768Z,3.30
2017-08-02T13:26:50.234Z,2.93
2017-08-02T13:29:18.474Z,3.03
2017-08-02T13:31:45.972Z,2.87
2017-08-02T13:34:14.228Z,3.63
2017-08-02T13:36:41.706Z,3.40
2017-08-02T13:39:09.936Z,3.20
2017-08-02T13:41:37.403Z,3.60
2017-08-02T13:44:04.863Z,2.80
2017-08-02T13:46:32.340Z,4.20
2017-08-02T13:48:59.811Z,2.97
2017-08-02T13:51:28.131Z,3.47
2017-08-02T13:53:55.819Z,3.30
2017-08-02T13:56:23.301Z,3.20
2017-08-02T13:58:50.767Z,3.83
2017-08-02T14:01:18.231Z,3.77
2017-08-02T14:03:46.464Z,4.00
2017-08-02T14:06:13.933Z,3.33
2017-08-02T14:08:41.396Z,3.37
2017-08-02T14:11:08.872Z,3.67
2017-08-02T14:13:36.340Z,3.97
2017-08-02T14:16:04.579Z,3.63
2017-08-02T14:18:32.039Z,3.60
2017-08-02T14:20:59.516Z,3.83
2017-08-02T14:23:26.976Z,4.80
2017-08-02T14:25:54.467Z,3.73
2017-08-02T14:28:22.692Z,3.67
2017-08-02T14:30:50.146Z,3.47
2017-08-02T14:33:18.657Z,4.03
2017-08-02T14:35:46.124Z,3.80
2017-08-02T14:38:14.361Z,3.60
2017-08-02T14:40:41.824Z,4.07
2017-08-02T14:43:09.296Z,4.20
2017-08-02T14:45:36.980Z,4.43
2017-08-02T14:48:04.455Z,5.27
2017-08-02T14:50:31.911Z,5.10
2017-08-02T14:52:59.397Z,5.00
2017-08-02T14:55:30.672Z,5.83
2017-08-02T14:58:01.309Z,4.23
2017-08-02T15:00:28.789Z,4.83
2017-08-02T15:02:56.288Z,4.37
2017-08-02T15:05:23.750Z,4.63
2017-08-02T15:07:51.216Z,4.12
2017-08-02T15:10:18.688Z,4.10
2017-08-02T15:12:46.143Z,4.13
2017-08-02T15:15:13.615Z,3.77
2017-08-02T15:17:41.086Z,3.57
2017-08-02T15:20:09.338Z,4.60
2017-08-02T15:22:36.803Z,3.70
2017-08-02T15:25:04.278Z,4.00
2017-08-02T15:27:31.745Z,3.73
2017-08-02T15:29:59.226Z,4.17
2017-08-02T15:32:27.458Z,4.27
2017-08-02T15:34:54.931Z,3.40
2017-08-02T15:37:22.392Z,3.60
2017-08-02T15:39:49.865Z,4.20
2017-08-02T15:42:18.096Z,4.50
2017-08-02T15:44:45.575Z,3.83
2017-08-02T15:47:19.925Z,3.80
2017-08-02T15:49:48.161Z,4.13
2017-08-02T15:52:15.619Z,4.80
2017-08-02T15:54:43.084Z,4.70
2017-08-02T15:57:10.540Z,4.60
2017-08-02T15:59:38.011Z,4.53
2017-08-02T16:02:05.476Z,3.70
2017-08-02T16:04:32.943Z,3.90
2017-08-02T16:07:01.197Z,4.20
2017-08-02T16:09:28.712Z,3.87
2017-08-02T16:11:56.175Z,3.67
2017-08-02T16:14:23.653Z,4.20
2017-08-02T16:16:51.145Z,4.70
2017-08-02T16:19:18.692Z,4.30
2017-08-02T16:21:46.281Z,4.43
2017-08-02T16:24:13.758Z,3.50
2017-08-02T16:26:41.223Z,4.67
2017-08-02T16:29:08.727Z,4.17
2017-08-02T16:31:36.179Z,4.57
2017-08-02T16:34:03.651Z,4.40
2017-08-02T16:36:31.121Z,4.10
2017-08-02T16:38:59.363Z,4.43
2017-08-02T16:41:26.832Z,4.07
2017-08-02T16:43:54.309Z,4.50
2017-08-02T16:46:21.841Z,4.10
2017-08-02T16:48:49.312Z,5.00
2017-08-02T16:51:16.762Z,4.43
2017-08-02T16:53:44.249Z,4.57
2017-08-02T16:56:11.714Z,4.23
2017-08-02T16:58:39.951Z,5.13
2017-08-02T17:01:07.415Z,3.80
2017-08-02T17:03:34.883Z,4.80
2017-08-02T17:06:02.357Z,4.87
2017-08-02T17:08:29.829Z,5.10
2017-08-02T17:10:58.056Z,5.20
2017-08-02T17:13:25.553Z,4.20
2017-08-02T17:15:53.019Z,5.30
2017-08-02T17:18:21.244Z,6.17
2017-08-02T17:20:48.719Z,5.53
2017-08-02T17:23:16.263Z,5.43
2017-08-02T17:25:43.792Z,5.47
2017-08-02T17:28:11.261Z,4.50
2017-08-02T17:30:38.727Z,5.13
2017-08-02T17:33:06.187Z,5.13
2017-08-02T17:35:33.668Z,5.17
2017-08-02T17:38:01.135Z,5.80
2017-08-02T17:40:28.624Z,5.77
2017-08-02T17:42:56.860Z,5.07
2017-08-02T17:45:24.342Z,5.60
2017-08-02T17:47:51.811Z,5.70
2017-08-02T17:50:24.984Z,5.67
2017-08-02T17:52:52.452Z,5.53
2017-08-02T17:55:19.915Z,5.03
2017-08-02T17:57:47.425Z,5.50
2017-08-02T18:00:14.887Z,5.30
2017-08-02T18:02:42.359Z,6.60
2017-08-02T18:05:09.859Z,5.47
2017-08-02T18:07:38.175Z,6.50
2017-08-02T18:10:05.641Z,5.70
2017-08-02T18:12:33.111Z,7.20
2017-08-02T18:15:00.584Z,8.07
2017-08-02T18:17:28.046Z,6.80
2017-08-02T18:19:55.521Z,6.80
2017-08-02T18:22:23.772Z,6.57
2017-08-02T18:24:51.244Z,7.00
2017-08-02T18:27:18.720Z,7.10
2017-08-02T18:29:46.179Z,7.53
2017-08-02T18:32:14.421Z,6.20
2017-08-02T18:34:41.882Z,6.23
2017-08-02T18:37:09.361Z,6.87
2017-08-02T18:39:36.873Z,7.00
2017-08-02T18:42:04.335Z,6.37
2017-08-02T18:44:35.959Z,7.60
2017-08-02T18:49:56.507Z,6.63
2017-08-02T18:52:23.983Z,6.93
2017-08-02T18:54:51.456Z,6.80
2017-08-02T18:57:18.913Z,6.83
2017-08-02T18:59:46.396Z,6.87
2017-08-02T19:02:14.623Z,7.83
2017-08-02T19:04:42.095Z,6.30
2017-08-02T19:07:09.562Z,6.53
2017-08-02T19:09:37.036Z,7.00
2017-08-02T19:12:04.506Z,5.80
2017-08-02T19:14:32.753Z,7.20
2017-08-02T19:17:00.216Z,5.93
2017-08-02T19:19:27.684Z,7.00
2017-08-02T19:21:55.142Z,5.77
2017-08-02T19:24:22.624Z,6.60
2017-08-02T19:26:50.852Z,6.20
2017-08-02T19:29:18.314Z,6.23
2017-08-02T19:31:45.793Z,7.33
2017-08-02T19:34:13.268Z,7.90
2017-08-02T19:36:40.746Z,7.57
2017-08-02T19:39:08.219Z,6.50
2017-08-02T19:41:35.678Z,5.43
2017-08-02T19:44:03.150Z,5.20
2017-08-02T19:46:30.616Z,6.50
2017-08-02T19:48:58.088Z,6.20
2017-08-02T19:51:25.548Z,6.27
2017-08-02T19:53:53.025Z,6.50
2017-08-02T19:56:21.259Z,7.37
2017-08-02T19:58:48.737Z,6.47
2017-08-02T20:01:16.196Z,5.47
2017-08-02T20:03:43.665Z,6.60
2017-08-02T20:06:11.131Z,6.60
2017-08-02T20:08:38.596Z,6.53
2017-08-02T20:11:06.832Z,7.43
2017-08-02T20:13:34.299Z,5.80
2017-08-02T20:16:01.755Z,5.40
2017-08-02T20:18:29.223Z,5.30
2017-08-02T20:20:56.683Z,5.80
2017-08-02T20:23:24.153Z,5.77
2017-08-02T20:25:51.711Z,5.90
2017-08-02T20:28:19.200Z,5.53
2017-08-02T20:30:46.684Z,6.27
2017-08-02T20:33:14.142Z,7.20
2017-08-02T20:35:41.618Z,5.47
2017-08-02T20:38:09.162Z,5.83
2017-08-02T20:40:36.637Z,6.10
2017-08-02T20:43:04.095Z,6.57
2017-08-02T20:45:31.567Z,6.00
2017-08-02T20:47:59.035Z,6.10
2017-08-02T20:50:26.527Z,6.23
2017-08-02T20:52:53.994Z,6.53
2017-08-02T20:55:21.463Z,6.77
2017-08-02T20:57:48.935Z,6.60
2017-08-02T21:00:16.411Z,6.23
2017-08-02T21:02:43.879Z,7.30
2017-08-02T21:05:11.347Z,6.27
2017-08-02T21:07:38.815Z,6.43
2017-08-02T21:10:07.052Z,6.90
2017-08-02T21:12:34.922Z,5.90
2017-08-02T21:15:02.425Z,6.40
2017-08-02T21:17:30.672Z,6.93
2017-08-02T21:19:58.141Z,6.93
2017-08-02T21:22:25.639Z,7.03
2017-08-02T21:24:53.099Z,6.37
2017-08-02T21:27:20.582Z,6.77
2017-08-02T21:29:48.054Z,5.67
2017-08-02T21:32:15.529Z,6.07
2017-08-02T21:34:42.984Z,6.67
2017-08-02T21:37:10.467Z,6.80
2017-08-02T21:39:38.791Z,6.37
2017-08-02T21:42:06.279Z,7.63
2017-08-02T21:44:33.731Z,6.23
2017-08-02T21:47:01.203Z,6.60
2017-08-02T21:52:06.553Z,7.37
2017-08-02T21:54:34.770Z,7.00
2017-08-02T21:57:02.264Z,6.97
2017-08-02T21:59:29.727Z,6.37
2017-08-02T22:01:57.198Z,6.40
2017-08-02T22:04:24.664Z,6.67
2017-08-02T22:06:52.146Z,6.27
2017-08-02T22:09:20.378Z,6.77
2017-08-02T22:11:47.855Z,7.10
2017-08-02T22:14:15.322Z,7.00
2017-08-02T22:16:42.795Z,7.07
2017-08-02T22:19:10.967Z,5.80
2017-08-02T22:21:39.204Z,6.43
2017-08-02T22:24:06.668Z,5.83
2017-08-02T22:26:34.144Z,6.40
2017-08-02T22:29:01.614Z,6.87
2017-08-02T22:31:29.089Z,7.60
2017-08-02T22:33:57.320Z,6.70
2017-08-02T22:36:24.811Z,6.90
2017-08-02T22:38:53.034Z,6.50
2017-08-02T22:41:20.501Z,5.73
2017-08-02T22:43:47.971Z,7.13
2017-08-02T22:46:15.444Z,7.30
2017-08-02T22:48:42.911Z,39.43
2017-08-02T22:51:10.396Z,99.63
2017-08-02T22:53:38.641Z,7.43
2017-08-02T22:56:06.095Z,6.97
2017-08-02T22:58:33.571Z,6.73
2017-08-02T23:01:01.030Z,7.70
2017-08-02T23:03:29.258Z,7.23
2017-08-02T23:05:56.724Z,7.47
2017-08-02T23:08:24.220Z,8.40
2017-08-02T23:10:51.680Z,7.17
2017-08-02T23:13:23.602Z,7.70
2017-08-02T23:15:51.067Z,7.17
2017-08-02T23:18:18.535Z,7.33
2017-08-02T23:20:45.997Z,7.53
2017-08-02T23:23:13.464Z,6.97
2017-08-02T23:25:40.950Z,8.00
2017-08-02T23:28:09.189Z,7.50
2017-08-02T23:30:36.652Z,6.80
2017-08-02T23:33:04.143Z,7.13
2017-08-02T23:35:31.643Z,7.70
2017-08-02T23:37:59.136Z,7.87
2017-08-02T23:40:26.602Z,9.10
2017-08-02T23:42:54.840Z,8.10
2017-08-02T23:45:22.310Z,8.83
2017-08-02T23:47:49.778Z,8.47
2017-08-02T23:50:17.239Z,7.47
2017-08-02T23:52:44.712Z,7.87
2017-08-02T23:55:12.943Z,8.47
2017-08-02T23:57:40.419Z,8.80
